sensor_id;sensor_type;location;lat;lon;timestamp;temperature;humidity
1686;DHT22;840;47.980;7.830;2022-09-27T00:01:10;12.40;99.90
1686;DHT22;840;47.980;7.830;2022-09-27T00:03:37;12.40;99.90
1686;DHT22;840;47.980;7.830;2022-09-27T00:06:07;12.40;99.90
1686;DHT22;840;47.980;7.830;2022-09-27T00:08:35;12.40;99.90
1686;DHT22;840;47.980;7.830;2022-09-27T00:11:03;12.50;99.90
1686;DHT22;840;47.980;7.830;2022-09-27T00:13:30;12.50;99.90
1686;DHT22;840;47.980;7.830;2022-09-27T00:15:57;12.50;99.90
1686;DHT22;840;47.980;7.830;2022-09-27T00:18:25;12.50;99.90
1686;DHT22;840;47.980;7.830;2022-09-27T00:20:52;12.50;99.90
1686;DHT22;840;47.980;7.830;2022-09-27T00:23:20;12.50;99.90
1686;DHT22;840;47.980;7.830;2022-09-27T00:25:54;12.50;99.90
1686;DHT22;840;47.980;7.830;2022-09-27T00:28:21;12.40;99.90
1686;DHT22;840;47.980;7.830;2022-09-27T00:30:48;12.40;99.90
1686;DHT22;840;47.980;7.830;2022-09-27T00:33:15;12.30;99.90
1686;DHT22;840;47.980;7.830;2022-09-27T00:35:42;12.30;99.90
1686;DHT22;840;47.980;7.830;2022-09-27T00:38:09;12.10;99.90
1686;DHT22;840;47.980;7.830;2022-09-27T00:40:37;12.10;99.90
1686;DHT22;840;47.980;7.830;2022-09-27T00:43:12;12.10;99.90
1686;DHT22;840;47.980;7.830;2022-09-27T00:45:40;12.00;99.90
1686;DHT22;840;47.980;7.830;2022-09-27T00:48:09;12.00;99.90
1686;DHT22;840;47.980;7.830;2022-09-27T00:50:38;12.10;99.90
1686;DHT22;840;47.980;7.830;2022-09-27T00:53:10;12.10;99.90
1686;DHT22;840;47.980;7.830;2022-09-27T00:55:42;12.10;99.90
1686;DHT22;840;47.980;7.830;2022-09-27T00:58:11;12.10;99.90
1686;DHT22;840;47.980;7.830;2022-09-27T01:00:44;12.10;99.90
1686;DHT22;840;47.980;7.830;2022-09-27T01:03:14;12.10;99.90
1686;DHT22;840;47.980;7.830;2022-09-27T01:05:43;12.10;99.90
1686;DHT22;840;47.980;7.830;2022-09-27T01:08:11;12.10;99.90
1686;DHT22;840;47.980;7.830;2022-09-27T01:10:47;12.10;99.90
1686;DHT22;840;47.980;7.830;2022-09-27T01:13:20;12.10;99.90
1686;DHT22;840;47.980;7.830;2022-09-27T01:15:54;12.00;99.90
1686;DHT22;840;47.980;7.830;2022-09-27T01:18:31;12.00;99.90
1686;DHT22;840;47.980;7.830;2022-09-27T01:21:09;12.00;99.90
1686;DHT22;840;47.980;7.830;2022-09-27T01:23:53;11.90;99.90
1686;DHT22;840;47.980;7.830;2022-09-27T01:26:33;11.90;99.90
1686;DHT22;840;47.980;7.830;2022-09-27T01:29:06;11.90;99.90
1686;DHT22;840;47.980;7.830;2022-09-27T01:31:41;11.90;99.90
1686;DHT22;840;47.980;7.830;2022-09-27T01:34:20;11.90;99.90
1686;DHT22;840;47.980;7.830;2022-09-27T01:36:53;11.90;99.90
1686;DHT22;840;47.980;7.830;2022-09-27T01:39:31;11.90;99.90
1686;DHT22;840;47.980;7.830;2022-09-27T01:42:01;11.90;99.90
1686;DHT22;840;47.980;7.830;2022-09-27T01:44:33;11.90;99.90
1686;DHT22;840;47.980;7.830;2022-09-27T01:47:04;11.90;99.90
1686;DHT22;840;47.980;7.830;2022-09-27T01:49:40;11.90;99.90
1686;DHT22;840;47.980;7.830;2022-09-27T01:52:09;12.00;99.90
1686;DHT22;840;47.980;7.830;2022-09-27T01:54:42;12.00;99.90
1686;DHT22;840;47.980;7.830;2022-09-27T01:57:11;12.00;99.90
1686;DHT22;840;47.980;7.830;2022-09-27T01:59:46;12.00;99.90
1686;DHT22;840;47.980;7.830;2022-09-27T02:02:17;12.00;99.90
1686;DHT22;840;47.980;7.830;2022-09-27T02:04:50;11.90;99.90
1686;DHT22;840;47.980;7.830;2022-09-27T02:07:22;11.90;99.90
1686;DHT22;840;47.980;7.830;2022-09-27T02:09:53;11.90;99.90
1686;DHT22;840;47.980;7.830;2022-09-27T02:12:24;11.90;99.90
1686;DHT22;840;47.980;7.830;2022-09-27T02:14:53;11.90;99.90
1686;DHT22;840;47.980;7.830;2022-09-27T02:17:26;11.90;99.90
1686;DHT22;840;47.980;7.830;2022-09-27T02:20:01;11.90;99.90
1686;DHT22;840;47.980;7.830;2022-09-27T02:22:33;11.90;99.90
1686;DHT22;840;47.980;7.830;2022-09-27T02:25:06;11.90;99.90
1686;DHT22;840;47.980;7.830;2022-09-27T02:27:39;11.90;99.90
1686;DHT22;840;47.980;7.830;2022-09-27T02:30:11;11.90;99.90
1686;DHT22;840;47.980;7.830;2022-09-27T02:32:40;11.90;99.90
1686;DHT22;840;47.980;7.830;2022-09-27T02:35:12;11.90;99.90
1686;DHT22;840;47.980;7.830;2022-09-27T02:37:41;11.90;99.90
1686;DHT22;840;47.980;7.830;2022-09-27T02:40:09;11.90;99.90
1686;DHT22;840;47.980;7.830;2022-09-27T02:42:36;11.90;99.90
1686;DHT22;840;47.980;7.830;2022-09-27T02:45:04;11.90;99.90
1686;DHT22;840;47.980;7.830;2022-09-27T02:47:54;11.80;99.90
1686;DHT22;840;47.980;7.830;2022-09-27T02:50:42;11.80;99.90
1686;DHT22;840;47.980;7.830;2022-09-27T02:53:14;11.80;99.90
1686;DHT22;840;47.980;7.830;2022-09-27T02:55:53;11.80;99.90
1686;DHT22;840;47.980;7.830;2022-09-27T02:58:29;11.80;99.90
1686;DHT22;840;47.980;7.830;2022-09-27T03:01:05;11.70;99.90
1686;DHT22;840;47.980;7.830;2022-09-27T03:03:41;11.70;99.90
1686;DHT22;840;47.980;7.830;2022-09-27T03:06:12;11.70;99.90
1686;DHT22;840;47.980;7.830;2022-09-27T03:08:42;11.70;99.90
1686;DHT22;840;47.980;7.830;2022-09-27T03:11:09;11.70;99.90
1686;DHT22;840;47.980;7.830;2022-09-27T03:13:36;11.70;99.90
1686;DHT22;840;47.980;7.830;2022-09-27T03:16:04;11.80;99.90
1686;DHT22;840;47.980;7.830;2022-09-27T03:18:31;11.80;99.90
1686;DHT22;840;47.980;7.830;2022-09-27T03:20:59;11.70;99.90
1686;DHT22;840;47.980;7.830;2022-09-27T03:23:26;11.70;99.90
1686;DHT22;840;47.980;7.830;2022-09-27T03:25:53;11.70;99.90
1686;DHT22;840;47.980;7.830;2022-09-27T03:28:20;11.70;99.90
1686;DHT22;840;47.980;7.830;2022-09-27T03:30:47;11.70;99.90
1686;DHT22;840;47.980;7.830;2022-09-27T03:33:13;11.70;99.90
1686;DHT22;840;47.980;7.830;2022-09-27T03:35:40;11.70;99.90
1686;DHT22;840;47.980;7.830;2022-09-27T03:38:09;11.70;99.90
1686;DHT22;840;47.980;7.830;2022-09-27T03:40:36;11.60;99.90
1686;DHT22;840;47.980;7.830;2022-09-27T03:43:03;11.60;99.90
1686;DHT22;840;47.980;7.830;2022-09-27T03:45:30;11.60;99.90
1686;DHT22;840;47.980;7.830;2022-09-27T03:47:57;11.60;99.90
1686;DHT22;840;47.980;7.830;2022-09-27T03:50:23;11.60;99.90
1686;DHT22;840;47.980;7.830;2022-09-27T03:52:50;11.60;99.90
1686;DHT22;840;47.980;7.830;2022-09-27T03:55:20;11.50;99.90
1686;DHT22;840;47.980;7.830;2022-09-27T03:57:47;11.50;99.90
1686;DHT22;840;47.980;7.830;2022-09-27T04:00:14;11.50;99.90
1686;DHT22;840;47.980;7.830;2022-09-27T04:02:41;11.50;99.90
1686;DHT22;840;47.980;7.830;2022-09-27T04:05:08;11.50;99.90
1686;DHT22;840;47.980;7.830;2022-09-27T04:07:35;11.40;99.90
1686;DHT22;840;47.980;7.830;2022-09-27T04:10:03;11.40;99.90
1686;DHT22;840;47.980;7.830;2022-09-27T04:12:32;11.40;99.90
1686;DHT22;840;47.980;7.830;2022-09-27T04:14:58;11.30;99.90
1686;DHT22;840;47.980;7.830;2022-09-27T04:17:26;11.30;99.90
1686;DHT22;840;47.980;7.830;2022-09-27T04:19:52;11.30;99.90
1686;DHT22;840;47.980;7.830;2022-09-27T04:22:19;11.30;99.90
1686;DHT22;840;47.980;7.830;2022-09-27T04:24:46;11.20;99.90
1686;DHT22;840;47.980;7.830;2022-09-27T04:27:13;11.30;99.90
1686;DHT22;840;47.980;7.830;2022-09-27T04:29:41;11.20;99.90
1686;DHT22;840;47.980;7.830;2022-09-27T04:32:10;11.20;99.90
1686;DHT22;840;47.980;7.830;2022-09-27T04:34:37;11.20;99.90
1686;DHT22;840;47.980;7.830;2022-09-27T04:37:21;11.20;99.90
1686;DHT22;840;47.980;7.830;2022-09-27T04:39:48;11.20;99.90
1686;DHT22;840;47.980;7.830;2022-09-27T04:42:15;11.20;99.90
1686;DHT22;840;47.980;7.830;2022-09-27T04:44:43;11.20;99.90
1686;DHT22;840;47.980;7.830;2022-09-27T04:47:10;11.10;99.90
1686;DHT22;840;47.980;7.830;2022-09-27T04:49:36;11.20;99.90
1686;DHT22;840;47.980;7.830;2022-09-27T04:52:04;11.20;99.90
1686;DHT22;840;47.980;7.830;2022-09-27T04:54:31;11.20;99.90
1686;DHT22;840;47.980;7.830;2022-09-27T04:56:57;11.20;99.90
1686;DHT22;840;47.980;7.830;2022-09-27T04:59:24;11.20;99.90
1686;DHT22;840;47.980;7.830;2022-09-27T05:01:53;11.20;99.90
1686;DHT22;840;47.980;7.830;2022-09-27T05:04:23;11.20;99.90
1686;DHT22;840;47.980;7.830;2022-09-27T05:06:50;11.20;99.90
1686;DHT22;840;47.980;7.830;2022-09-27T05:09:18;11.20;99.90
1686;DHT22;840;47.980;7.830;2022-09-27T05:11:44;11.20;99.90
1686;DHT22;840;47.980;7.830;2022-09-27T05:14:11;11.30;99.90
1686;DHT22;840;47.980;7.830;2022-09-27T05:16:39;11.30;99.90
1686;DHT22;840;47.980;7.830;2022-09-27T05:19:07;11.20;99.90
1686;DHT22;840;47.980;7.830;2022-09-27T05:21:35;11.20;99.90
1686;DHT22;840;47.980;7.830;2022-09-27T05:24:02;11.20;99.90
1686;DHT22;840;47.980;7.830;2022-09-27T05:26:29;11.20;99.90
1686;DHT22;840;47.980;7.830;2022-09-27T05:28:56;11.20;99.90
1686;DHT22;840;47.980;7.830;2022-09-27T05:31:22;11.20;99.90
1686;DHT22;840;47.980;7.830;2022-09-27T05:33:50;11.20;99.90
1686;DHT22;840;47.980;7.830;2022-09-27T05:36:19;11.20;99.90
1686;DHT22;840;47.980;7.830;2022-09-27T05:38:46;11.20;99.90
1686;DHT22;840;47.980;7.830;2022-09-27T05:41:13;11.20;99.90
1686;DHT22;840;47.980;7.830;2022-09-27T05:43:40;11.20;99.90
1686;DHT22;840;47.980;7.830;2022-09-27T05:46:07;11.20;99.90
1686;DHT22;840;47.980;7.830;2022-09-27T05:48:34;11.20;99.90
1686;DHT22;840;47.980;7.830;2022-09-27T05:51:01;11.20;99.90
1686;DHT22;840;47.980;7.830;2022-09-27T05:53:29;11.20;99.90
1686;DHT22;840;47.980;7.830;2022-09-27T05:56:00;11.20;99.90
1686;DHT22;840;47.980;7.830;2022-09-27T05:58:27;11.20;99.90
1686;DHT22;840;47.980;7.830;2022-09-27T06:00:54;11.20;99.90
1686;DHT22;840;47.980;7.830;2022-09-27T06:03:20;11.20;99.90
1686;DHT22;840;47.980;7.830;2022-09-27T06:05:47;11.20;99.90
1686;DHT22;840;47.980;7.830;2022-09-27T06:08:14;11.20;99.90
1686;DHT22;840;47.980;7.830;2022-09-27T06:10:42;11.20;99.90
1686;DHT22;840;47.980;7.830;2022-09-27T06:13:11;11.10;99.90
1686;DHT22;840;47.980;7.830;2022-09-27T06:15:39;11.10;99.90
1686;DHT22;840;47.980;7.830;2022-09-27T06:18:08;11.10;99.90
1686;DHT22;840;47.980;7.830;2022-09-27T06:20:36;11.10;99.90
1686;DHT22;840;47.980;7.830;2022-09-27T06:23:04;11.10;99.90
1686;DHT22;840;47.980;7.830;2022-09-27T06:25:32;11.10;99.90
1686;DHT22;840;47.980;7.830;2022-09-27T06:28:00;11.10;99.90
1686;DHT22;840;47.980;7.830;2022-09-27T06:30:27;11.10;99.90
1686;DHT22;840;47.980;7.830;2022-09-27T06:32:55;11.10;99.90
1686;DHT22;840;47.980;7.830;2022-09-27T06:35:23;11.00;99.90
1686;DHT22;840;47.980;7.830;2022-09-27T06:37:50;11.00;99.90
1686;DHT22;840;47.980;7.830;2022-09-27T06:40:17;11.00;99.90
1686;DHT22;840;47.980;7.830;2022-09-27T06:42:44;11.00;99.90
1686;DHT22;840;47.980;7.830;2022-09-27T06:45:13;11.00;99.90
1686;DHT22;840;47.980;7.830;2022-09-27T06:47:40;11.10;99.90
1686;DHT22;840;47.980;7.830;2022-09-27T06:50:07;11.10;99.90
1686;DHT22;840;47.980;7.830;2022-09-27T06:52:35;11.20;99.90
1686;DHT22;840;47.980;7.830;2022-09-27T06:55:03;11.20;99.90
1686;DHT22;840;47.980;7.830;2022-09-27T06:57:30;11.20;99.90
1686;DHT22;840;47.980;7.830;2022-09-27T07:00:21;11.30;99.90
1686;DHT22;840;47.980;7.830;2022-09-27T07:02:51;11.30;99.90
1686;DHT22;840;47.980;7.830;2022-09-27T07:05:19;11.30;99.90
1686;DHT22;840;47.980;7.830;2022-09-27T07:07:46;11.40;99.90
1686;DHT22;840;47.980;7.830;2022-09-27T07:10:13;11.40;99.90
1686;DHT22;840;47.980;7.830;2022-09-27T07:12:41;11.50;99.90
1686;DHT22;840;47.980;7.830;2022-09-27T07:15:12;11.60;99.90
1686;DHT22;840;47.980;7.830;2022-09-27T07:17:40;11.70;99.90
1686;DHT22;840;47.980;7.830;2022-09-27T07:20:07;11.80;99.90
1686;DHT22;840;47.980;7.830;2022-09-27T07:22:38;11.80;99.90
1686;DHT22;840;47.980;7.830;2022-09-27T07:25:06;11.80;99.90
1686;DHT22;840;47.980;7.830;2022-09-27T07:27:33;11.80;99.90
1686;DHT22;840;47.980;7.830;2022-09-27T07:30:00;11.70;99.90
1686;DHT22;840;47.980;7.830;2022-09-27T07:32:27;11.70;99.90
1686;DHT22;840;47.980;7.830;2022-09-27T07:34:56;11.70;99.90
1686;DHT22;840;47.980;7.830;2022-09-27T07:37:22;11.60;99.90
1686;DHT22;840;47.980;7.830;2022-09-27T07:39:49;11.60;99.90
1686;DHT22;840;47.980;7.830;2022-09-27T07:42:16;11.70;99.90
1686;DHT22;840;47.980;7.830;2022-09-27T07:44:42;11.70;99.90
1686;DHT22;840;47.980;7.830;2022-09-27T07:47:10;11.70;99.90
1686;DHT22;840;47.980;7.830;2022-09-27T07:49:36;11.70;99.90
1686;DHT22;840;47.980;7.830;2022-09-27T07:52:04;11.70;99.90
1686;DHT22;840;47.980;7.830;2022-09-27T07:54:31;11.70;99.90
1686;DHT22;840;47.980;7.830;2022-09-27T07:56:58;11.70;99.90
1686;DHT22;840;47.980;7.830;2022-09-27T07:59:27;11.70;99.90
1686;DHT22;840;47.980;7.830;2022-09-27T08:01:54;11.60;99.90
1686;DHT22;840;47.980;7.830;2022-09-27T08:04:21;11.60;99.90
1686;DHT22;840;47.980;7.830;2022-09-27T08:06:47;11.70;99.90
1686;DHT22;840;47.980;7.830;2022-09-27T08:09:18;11.70;99.90
1686;DHT22;840;47.980;7.830;2022-09-27T08:11:45;11.70;99.90
1686;DHT22;840;47.980;7.830;2022-09-27T08:14:13;11.70;99.90
1686;DHT22;840;47.980;7.830;2022-09-27T08:16:40;11.70;99.90
1686;DHT22;840;47.980;7.830;2022-09-27T08:19:07;11.70;99.90
1686;DHT22;840;47.980;7.830;2022-09-27T08:21:35;11.80;99.90
1686;DHT22;840;47.980;7.830;2022-09-27T08:24:02;11.80;99.90
1686;DHT22;840;47.980;7.830;2022-09-27T08:26:30;11.80;99.90
1686;DHT22;840;47.980;7.830;2022-09-27T08:28:57;11.80;99.90
1686;DHT22;840;47.980;7.830;2022-09-27T08:31:24;11.70;99.90
1686;DHT22;840;47.980;7.830;2022-09-27T08:33:51;11.70;99.90
1686;DHT22;840;47.980;7.830;2022-09-27T08:36:18;11.70;99.90
1686;DHT22;840;47.980;7.830;2022-09-27T08:38:47;11.70;99.90
1686;DHT22;840;47.980;7.830;2022-09-27T08:41:20;11.60;99.90
1686;DHT22;840;47.980;7.830;2022-09-27T08:43:58;11.60;99.90
1686;DHT22;840;47.980;7.830;2022-09-27T08:46:37;11.60;99.90
1686;DHT22;840;47.980;7.830;2022-09-27T08:49:11;11.60;99.90
1686;DHT22;840;47.980;7.830;2022-09-27T08:51:40;11.60;99.90
1686;DHT22;840;47.980;7.830;2022-09-27T08:54:13;11.70;99.90
1686;DHT22;840;47.980;7.830;2022-09-27T08:56:43;11.70;99.90
1686;DHT22;840;47.980;7.830;2022-09-27T08:59:15;11.70;99.90
1686;DHT22;840;47.980;7.830;2022-09-27T09:01:46;11.70;99.90
1686;DHT22;840;47.980;7.830;2022-09-27T09:04:15;11.70;99.90
1686;DHT22;840;47.980;7.830;2022-09-27T09:06:52;11.70;99.90
1686;DHT22;840;47.980;7.830;2022-09-27T09:09:27;11.70;99.90
1686;DHT22;840;47.980;7.830;2022-09-27T09:11:59;11.70;99.90
1686;DHT22;840;47.980;7.830;2022-09-27T09:15:04;11.70;99.90
1686;DHT22;840;47.980;7.830;2022-09-27T09:17:47;11.70;99.90
1686;DHT22;840;47.980;7.830;2022-09-27T09:20:25;11.70;99.90
1686;DHT22;840;47.980;7.830;2022-09-27T09:23:26;11.80;99.90
1686;DHT22;840;47.980;7.830;2022-09-27T09:26:01;11.90;99.90
1686;DHT22;840;47.980;7.830;2022-09-27T09:28:41;12.00;99.90
1686;DHT22;840;47.980;7.830;2022-09-27T09:31:17;12.10;99.90
1686;DHT22;840;47.980;7.830;2022-09-27T09:33:50;12.20;99.90
1686;DHT22;840;47.980;7.830;2022-09-27T09:36:24;12.20;99.90
1686;DHT22;840;47.980;7.830;2022-09-27T09:38:55;12.20;99.90
1686;DHT22;840;47.980;7.830;2022-09-27T09:41:27;12.20;99.90
1686;DHT22;840;47.980;7.830;2022-09-27T09:43:58;12.20;99.90
1686;DHT22;840;47.980;7.830;2022-09-27T09:46:31;12.20;99.90
1686;DHT22;840;47.980;7.830;2022-09-27T09:49:02;12.20;99.90
1686;DHT22;840;47.980;7.830;2022-09-27T09:51:37;12.20;99.90
1686;DHT22;840;47.980;7.830;2022-09-27T09:54:07;12.10;99.90
1686;DHT22;840;47.980;7.830;2022-09-27T09:56:41;12.10;99.90
1686;DHT22;840;47.980;7.830;2022-09-27T09:59:24;12.20;99.90
1686;DHT22;840;47.980;7.830;2022-09-27T10:01:57;12.20;99.90
1686;DHT22;840;47.980;7.830;2022-09-27T10:04:26;12.20;99.90
1686;DHT22;840;47.980;7.830;2022-09-27T10:06:55;12.30;99.90
1686;DHT22;840;47.980;7.830;2022-09-27T10:09:25;12.40;99.90
1686;DHT22;840;47.980;7.830;2022-09-27T10:12:07;12.50;99.90
1686;DHT22;840;47.980;7.830;2022-09-27T10:14:35;12.50;99.90
1686;DHT22;840;47.980;7.830;2022-09-27T10:17:08;12.60;99.90
1686;DHT22;840;47.980;7.830;2022-09-27T10:19:35;12.70;99.90
1686;DHT22;840;47.980;7.830;2022-09-27T10:22:13;12.80;99.90
1686;DHT22;840;47.980;7.830;2022-09-27T10:24:53;12.90;99.90
1686;DHT22;840;47.980;7.830;2022-09-27T10:27:20;13.00;99.90
1686;DHT22;840;47.980;7.830;2022-09-27T10:29:55;13.00;99.90
1686;DHT22;840;47.980;7.830;2022-09-27T10:32:25;13.00;99.90
1686;DHT22;840;47.980;7.830;2022-09-27T10:34:55;13.10;99.90
1686;DHT22;840;47.980;7.830;2022-09-27T10:37:23;13.10;99.90
1686;DHT22;840;47.980;7.830;2022-09-27T10:39:50;13.20;99.90
1686;DHT22;840;47.980;7.830;2022-09-27T10:42:29;13.20;99.90
1686;DHT22;840;47.980;7.830;2022-09-27T10:44:58;13.20;99.90
1686;DHT22;840;47.980;7.830;2022-09-27T10:47:46;13.30;99.90
1686;DHT22;840;47.980;7.830;2022-09-27T10:50:17;13.30;99.90
1686;DHT22;840;47.980;7.830;2022-09-27T10:52:46;13.20;99.90
1686;DHT22;840;47.980;7.830;2022-09-27T10:55:19;13.20;99.90
1686;DHT22;840;47.980;7.830;2022-09-27T10:57:48;13.10;99.90
1686;DHT22;840;47.980;7.830;2022-09-27T11:00:21;13.00;99.90
1686;DHT22;840;47.980;7.830;2022-09-27T11:02:53;12.90;99.90
1686;DHT22;840;47.980;7.830;2022-09-27T11:05:31;12.90;99.90
1686;DHT22;840;47.980;7.830;2022-09-27T11:08:00;12.90;99.90
1686;DHT22;840;47.980;7.830;2022-09-27T11:10:29;12.90;99.90
1686;DHT22;840;47.980;7.830;2022-09-27T11:13:10;12.90;99.90
1686;DHT22;840;47.980;7.830;2022-09-27T11:15:49;12.90;99.90
1686;DHT22;840;47.980;7.830;2022-09-27T11:18:27;12.90;99.90
1686;DHT22;840;47.980;7.830;2022-09-27T11:21:03;13.00;99.90
1686;DHT22;840;47.980;7.830;2022-09-27T11:23:50;13.00;99.90
1686;DHT22;840;47.980;7.830;2022-09-27T11:26:31;13.10;99.90
1686;DHT22;840;47.980;7.830;2022-09-27T11:29:10;13.00;99.90
1686;DHT22;840;47.980;7.830;2022-09-27T11:31:42;13.00;99.90
1686;DHT22;840;47.980;7.830;2022-09-27T11:34:30;13.10;99.90
1686;DHT22;840;47.980;7.830;2022-09-27T11:37:14;13.10;99.90
1686;DHT22;840;47.980;7.830;2022-09-27T11:39:53;13.10;99.90
1686;DHT22;840;47.980;7.830;2022-09-27T11:42:45;13.00;99.90
1686;DHT22;840;47.980;7.830;2022-09-27T11:45:24;13.00;99.90
1686;DHT22;840;47.980;7.830;2022-09-27T11:48:01;12.90;99.90
1686;DHT22;840;47.980;7.830;2022-09-27T11:51:03;12.80;99.90
1686;DHT22;840;47.980;7.830;2022-09-27T11:53:59;12.80;99.90
1686;DHT22;840;47.980;7.830;2022-09-27T11:56:39;12.80;99.90
1686;DHT22;840;47.980;7.830;2022-09-27T12:02:14;12.90;99.90
1686;DHT22;840;47.980;7.830;2022-09-27T12:04:59;13.00;99.90
1686;DHT22;840;47.980;7.830;2022-09-27T12:07:40;13.20;99.90
1686;DHT22;840;47.980;7.830;2022-09-27T12:10:13;13.40;99.90
1686;DHT22;840;47.980;7.830;2022-09-27T12:12:56;13.60;99.90
1686;DHT22;840;47.980;7.830;2022-09-27T12:15:26;13.70;99.90
1686;DHT22;840;47.980;7.830;2022-09-27T12:18:09;13.70;99.90
1686;DHT22;840;47.980;7.830;2022-09-27T12:20:40;13.70;99.90
1686;DHT22;840;47.980;7.830;2022-09-27T12:23:14;13.80;99.90
1686;DHT22;840;47.980;7.830;2022-09-27T12:25:43;13.90;99.90
1686;DHT22;840;47.980;7.830;2022-09-27T12:28:17;14.00;99.90
1686;DHT22;840;47.980;7.830;2022-09-27T12:30:49;14.00;99.90
1686;DHT22;840;47.980;7.830;2022-09-27T12:33:27;14.00;99.90
1686;DHT22;840;47.980;7.830;2022-09-27T12:35:58;14.10;99.90
1686;DHT22;840;47.980;7.830;2022-09-27T12:38:34;14.10;99.90
1686;DHT22;840;47.980;7.830;2022-09-27T12:41:04;14.20;99.90
1686;DHT22;840;47.980;7.830;2022-09-27T12:43:33;14.20;99.90
1686;DHT22;840;47.980;7.830;2022-09-27T12:46:09;14.10;99.90
1686;DHT22;840;47.980;7.830;2022-09-27T12:48:46;14.00;99.90
1686;DHT22;840;47.980;7.830;2022-09-27T12:51:17;13.90;99.90
1686;DHT22;840;47.980;7.830;2022-09-27T12:54:04;13.80;99.90
1686;DHT22;840;47.980;7.830;2022-09-27T12:56:44;13.70;99.90
1686;DHT22;840;47.980;7.830;2022-09-27T13:02:37;13.40;99.90
1686;DHT22;840;47.980;7.830;2022-09-27T13:05:38;13.30;99.90
1686;DHT22;840;47.980;7.830;2022-09-27T13:08:31;13.10;99.90
1686;DHT22;840;47.980;7.830;2022-09-27T13:11:07;12.90;99.90
1686;DHT22;840;47.980;7.830;2022-09-27T13:13:38;12.80;99.90
1686;DHT22;840;47.980;7.830;2022-09-27T13:16:07;12.70;99.90
1686;DHT22;840;47.980;7.830;2022-09-27T13:18:54;12.60;99.90
1686;DHT22;840;47.980;7.830;2022-09-27T13:21:52;12.60;99.90
1686;DHT22;840;47.980;7.830;2022-09-27T13:24:47;12.80;99.90
1686;DHT22;840;47.980;7.830;2022-09-27T13:27:38;12.90;99.90
1686;DHT22;840;47.980;7.830;2022-09-27T13:30:42;13.00;99.90
1686;DHT22;840;47.980;7.830;2022-09-27T13:33:30;13.00;99.90
1686;DHT22;840;47.980;7.830;2022-09-27T13:36:26;13.00;99.90
1686;DHT22;840;47.980;7.830;2022-09-27T13:39:16;13.10;99.90
1686;DHT22;840;47.980;7.830;2022-09-27T13:42:07;13.10;99.90
1686;DHT22;840;47.980;7.830;2022-09-27T13:44:46;13.10;99.90
1686;DHT22;840;47.980;7.830;2022-09-27T13:47:25;13.00;99.90
1686;DHT22;840;47.980;7.830;2022-09-27T13:50:01;12.90;99.90
1686;DHT22;840;47.980;7.830;2022-09-27T13:52:31;12.80;99.90
1686;DHT22;840;47.980;7.830;2022-09-27T13:55:01;12.80;99.90
1686;DHT22;840;47.980;7.830;2022-09-27T13:57:41;12.70;99.90
1686;DHT22;840;47.980;7.830;2022-09-27T14:00:12;12.60;99.90
1686;DHT22;840;47.980;7.830;2022-09-27T14:02:49;12.60;99.90
1686;DHT22;840;47.980;7.830;2022-09-27T14:05:20;12.50;99.90
1686;DHT22;840;47.980;7.830;2022-09-27T14:07:49;12.40;99.90
1686;DHT22;840;47.980;7.830;2022-09-27T14:10:18;12.30;99.90
1686;DHT22;840;47.980;7.830;2022-09-27T14:12:49;12.30;99.90
1686;DHT22;840;47.980;7.830;2022-09-27T14:15:21;12.30;99.90
1686;DHT22;840;47.980;7.830;2022-09-27T14:17:49;12.40;99.90
1686;DHT22;840;47.980;7.830;2022-09-27T14:20:33;12.40;99.90
1686;DHT22;840;47.980;7.830;2022-09-27T14:23:00;12.50;99.90
1686;DHT22;840;47.980;7.830;2022-09-27T14:25:28;12.50;99.90
1686;DHT22;840;47.980;7.830;2022-09-27T14:27:55;12.50;99.90
1686;DHT22;840;47.980;7.830;2022-09-27T14:30:26;12.60;99.90
1686;DHT22;840;47.980;7.830;2022-09-27T14:32:54;12.60;99.90
1686;DHT22;840;47.980;7.830;2022-09-27T14:35:24;12.60;99.90
1686;DHT22;840;47.980;7.830;2022-09-27T14:38:10;12.70;99.90
1686;DHT22;840;47.980;7.830;2022-09-27T14:40:39;12.80;99.90
1686;DHT22;840;47.980;7.830;2022-09-27T14:43:14;12.90;99.90
1686;DHT22;840;47.980;7.830;2022-09-27T14:45:43;12.90;99.90
1686;DHT22;840;47.980;7.830;2022-09-27T14:48:21;12.90;99.90
1686;DHT22;840;47.980;7.830;2022-09-27T14:50:56;12.90;99.90
1686;DHT22;840;47.980;7.830;2022-09-27T14:53:27;12.90;99.90
1686;DHT22;840;47.980;7.830;2022-09-27T14:55:55;12.90;99.90
1686;DHT22;840;47.980;7.830;2022-09-27T14:58:22;12.90;99.90
1686;DHT22;840;47.980;7.830;2022-09-27T15:00:51;12.90;99.90
1686;DHT22;840;47.980;7.830;2022-09-27T15:03:21;12.90;99.90
1686;DHT22;840;47.980;7.830;2022-09-27T15:05:50;12.90;99.90
1686;DHT22;840;47.980;7.830;2022-09-27T15:08:19;13.00;99.90
1686;DHT22;840;47.980;7.830;2022-09-27T15:10:48;12.90;99.90
1686;DHT22;840;47.980;7.830;2022-09-27T15:13:17;12.90;99.90
1686;DHT22;840;47.980;7.830;2022-09-27T15:15:44;12.90;99.90
1686;DHT22;840;47.980;7.830;2022-09-27T15:18:38;13.00;99.90
1686;DHT22;840;47.980;7.830;2022-09-27T15:21:07;13.00;99.90
1686;DHT22;840;47.980;7.830;2022-09-27T15:23:36;13.10;99.90
1686;DHT22;840;47.980;7.830;2022-09-27T15:26:07;13.10;99.90
1686;DHT22;840;47.980;7.830;2022-09-27T15:28:35;13.20;99.90
1686;DHT22;840;47.980;7.830;2022-09-27T15:31:04;13.20;99.90
1686;DHT22;840;47.980;7.830;2022-09-27T15:33:33;13.50;99.90
1686;DHT22;840;47.980;7.830;2022-09-27T15:36:03;13.70;99.90
1686;DHT22;840;47.980;7.830;2022-09-27T15:38:31;14.00;99.90
1686;DHT22;840;47.980;7.830;2022-09-27T15:41:10;14.10;99.90
1686;DHT22;840;47.980;7.830;2022-09-27T15:43:41;14.00;99.90
1686;DHT22;840;47.980;7.830;2022-09-27T15:46:30;14.00;99.90
1686;DHT22;840;47.980;7.830;2022-09-27T15:49:20;13.90;99.90
1686;DHT22;840;47.980;7.830;2022-09-27T15:51:48;13.80;99.90
1686;DHT22;840;47.980;7.830;2022-09-27T15:54:17;13.60;99.90
1686;DHT22;840;47.980;7.830;2022-09-27T15:56:45;13.50;99.90
1686;DHT22;840;47.980;7.830;2022-09-27T15:59:17;13.40;99.90
1686;DHT22;840;47.980;7.830;2022-09-27T16:01:45;13.20;99.90
1686;DHT22;840;47.980;7.830;2022-09-27T16:04:12;13.10;99.90
1686;DHT22;840;47.980;7.830;2022-09-27T16:06:41;13.00;99.90
1686;DHT22;840;47.980;7.830;2022-09-27T16:09:13;12.90;99.90
1686;DHT22;840;47.980;7.830;2022-09-27T16:11:42;12.80;99.90
1686;DHT22;840;47.980;7.830;2022-09-27T16:14:08;12.70;99.90
1686;DHT22;840;47.980;7.830;2022-09-27T16:16:35;12.60;99.90
1686;DHT22;840;47.980;7.830;2022-09-27T16:19:03;12.50;99.90
1686;DHT22;840;47.980;7.830;2022-09-27T16:21:29;12.40;99.90
1686;DHT22;840;47.980;7.830;2022-09-27T16:23:58;12.40;99.90
1686;DHT22;840;47.980;7.830;2022-09-27T16:26:24;12.40;99.90
1686;DHT22;840;47.980;7.830;2022-09-27T16:28:51;12.30;99.90
1686;DHT22;840;47.980;7.830;2022-09-27T16:31:18;12.30;99.90
1686;DHT22;840;47.980;7.830;2022-09-27T16:33:47;12.20;99.90
1686;DHT22;840;47.980;7.830;2022-09-27T16:36:14;12.20;99.90
1686;DHT22;840;47.980;7.830;2022-09-27T16:38:47;12.10;99.90
1686;DHT22;840;47.980;7.830;2022-09-27T16:41:18;12.10;99.90
1686;DHT22;840;47.980;7.830;2022-09-27T16:43:45;12.10;99.90
1686;DHT22;840;47.980;7.830;2022-09-27T16:46:14;12.10;99.90
1686;DHT22;840;47.980;7.830;2022-09-27T16:48:44;12.10;99.90
1686;DHT22;840;47.980;7.830;2022-09-27T16:51:14;12.10;99.90
1686;DHT22;840;47.980;7.830;2022-09-27T16:53:59;12.00;99.90